createdAt,value
2018-04-27T00:03:18.947Z,2.60
2018-04-27T00:08:21.462Z,2.13
2018-04-27T00:13:23.980Z,2.20
2018-04-27T00:18:26.487Z,2.30
2018-04-27T00:23:29.748Z,2.37
2018-04-27T00:28:32.268Z,1.67
2018-04-27T00:33:34.772Z,2.50
2018-04-27T00:38:38.043Z,2.70
2018-04-27T00:43:40.575Z,2.30
2018-04-27T00:48:43.085Z,2.50
2018-04-27T00:53:46.351Z,2.10
2018-04-27T00:58:48.864Z,2.13
2018-04-27T01:03:51.363Z,2.30
2018-04-27T01:08:53.856Z,2.20
2018-04-27T01:13:56.386Z,1.93
2018-04-27T01:18:58.888Z,2.33
2018-04-27T01:24:01.395Z,1.90
2018-04-27T01:29:03.887Z,2.20
2018-04-27T01:34:06.396Z,2.53
2018-04-27T01:39:08.903Z,2.37
2018-04-27T01:44:11.403Z,2.23
2018-04-27T01:49:13.907Z,2.73
2018-04-27T01:54:17.175Z,2.57
2018-04-27T01:59:19.688Z,2.70
2018-04-27T02:04:22.179Z,3.10
2018-04-27T02:09:24.667Z,2.33
2018-04-27T02:14:27.196Z,2.90
2018-04-27T02:19:30.462Z,3.07
2018-04-27T02:24:32.959Z,2.37
2018-04-27T02:29:35.460Z,2.93
2018-04-27T02:34:37.971Z,3.33
2018-04-27T02:39:41.228Z,2.73
2018-04-27T02:44:43.746Z,2.70
2018-04-27T02:49:46.272Z,2.50
2018-04-27T02:54:49.540Z,2.70
2018-04-27T02:59:52.051Z,2.20
2018-04-27T03:04:54.548Z,2.70
2018-04-27T03:09:57.048Z,2.70
2018-04-27T03:14:59.555Z,3.40
2018-04-27T03:20:02.817Z,3.77
2018-04-27T03:25:05.303Z,3.57
2018-04-27T03:30:07.816Z,3.30
2018-04-27T03:35:10.319Z,2.57
2018-04-27T03:40:13.072Z,2.60
2018-04-27T03:45:15.583Z,3.77
2018-04-27T03:50:18.091Z,3.13
2018-04-27T03:55:20.591Z,2.73
2018-04-27T04:00:34.956Z,2.90
2018-04-27T04:05:37.455Z,2.67
2018-04-27T04:10:39.955Z,2.40
2018-04-27T04:15:42.464Z,2.77
2018-04-27T04:20:45.753Z,2.90
2018-04-27T04:25:48.252Z,2.80
2018-04-27T04:30:50.755Z,2.60
2018-04-27T04:35:53.252Z,2.70
2018-04-27T04:40:56.547Z,2.67
2018-04-27T04:45:59.047Z,2.80
2018-04-27T04:51:01.547Z,2.77
2018-04-27T04:56:05.562Z,2.40
2018-04-27T05:01:08.047Z,3.23
2018-04-27T05:06:10.540Z,2.33
2018-04-27T05:11:13.032Z,2.60
2018-04-27T05:16:15.544Z,3.53
2018-04-27T05:21:18.040Z,2.33
2018-04-27T05:26:21.296Z,2.17
2018-04-27T05:31:25.292Z,1.80
2018-04-27T05:36:28.556Z,2.17
2018-04-27T05:41:31.047Z,2.70
2018-04-27T05:46:33.556Z,2.47
2018-04-27T05:51:36.044Z,2.23
2018-04-27T05:56:38.541Z,2.60
2018-04-27T06:01:41.028Z,2.27
2018-04-27T06:06:43.523Z,2.10
2018-04-27T06:11:46.019Z,1.70
2018-04-27T06:16:48.515Z,2.30
2018-04-27T06:21:51.003Z,2.20
2018-04-27T06:26:53.507Z,2.30
2018-04-27T06:31:56.012Z,2.40
2018-04-27T06:36:59.279Z,2.07
2018-04-27T06:42:01.799Z,1.80
2018-04-27T06:47:04.306Z,2.57
2018-04-27T06:52:07.564Z,2.00
2018-04-27T06:57:10.068Z,1.80
2018-04-27T07:02:12.579Z,1.83
2018-04-27T07:07:15.089Z,2.03
2018-04-27T07:12:17.579Z,1.90
2018-04-27T07:17:20.115Z,2.30
2018-04-27T07:22:22.611Z,2.13
2018-04-27T07:27:25.119Z,1.73
2018-04-27T07:32:27.636Z,2.30
2018-04-27T07:37:30.139Z,2.07
2018-04-27T07:42:32.643Z,2.20
2018-04-27T07:47:35.908Z,2.10
2018-04-27T07:52:38.424Z,2.00
2018-04-27T07:57:40.945Z,1.47
2018-04-27T08:02:44.207Z,2.03
2018-04-27T08:07:46.719Z,1.77
2018-04-27T08:12:49.224Z,2.13
2018-04-27T08:17:51.727Z,1.50
2018-04-27T08:22:55.803Z,1.50
2018-04-27T08:27:58.318Z,1.33
2018-04-27T08:33:00.819Z,1.93
2018-04-27T08:38:03.324Z,1.63
2018-04-27T08:43:05.818Z,1.43
2018-04-27T08:48:08.316Z,1.60
2018-04-27T08:53:10.823Z,1.97
2018-04-27T08:58:14.095Z,1.47
2018-04-27T09:03:16.612Z,1.60
2018-04-27T09:08:19.115Z,2.00
2018-04-27T09:13:22.399Z,1.47
2018-04-27T09:18:24.904Z,1.80
2018-04-27T09:23:27.416Z,2.13
2018-04-27T09:28:30.687Z,1.70
2018-04-27T09:33:33.195Z,1.10
2018-04-27T09:38:35.691Z,1.90
2018-04-27T09:43:38.195Z,1.47
2018-04-27T09:48:40.712Z,1.83
2018-04-27T09:53:43.979Z,1.50
2018-04-27T09:58:46.506Z,1.20
2018-04-27T10:03:49.767Z,1.77
2018-04-27T10:08:52.268Z,1.50
2018-04-27T10:13:54.776Z,2.03
2018-04-27T10:18:57.255Z,1.50
2018-04-27T10:24:00.523Z,1.17
2018-04-27T10:29:03.032Z,1.60
2018-04-27T10:34:05.535Z,1.10
2018-04-27T10:39:08.035Z,1.00
2018-04-27T10:44:10.535Z,1.50
2018-04-27T10:49:13.027Z,2.07
2018-04-27T10:54:15.515Z,1.10
2018-04-27T10:59:18.032Z,1.50
2018-04-27T11:04:20.539Z,1.13
2018-04-27T11:09:23.808Z,1.00
2018-04-27T11:14:26.316Z,1.20
2018-04-27T11:19:28.820Z,1.57
2018-04-27T11:24:31.328Z,1.20
2018-04-27T11:29:33.823Z,1.17
2018-04-27T11:34:37.085Z,1.57
2018-04-27T11:39:39.584Z,1.73
2018-04-27T11:44:42.086Z,1.07
2018-04-27T11:49:44.615Z,1.63
2018-04-27T11:54:47.102Z,1.87
2018-04-27T11:59:50.356Z,1.10
2018-04-27T12:04:52.864Z,1.23
2018-04-27T12:09:55.369Z,1.40
2018-04-27T12:14:57.863Z,1.30
2018-04-27T12:20:00.351Z,1.97
2018-04-27T12:25:02.848Z,1.60
2018-04-27T12:30:05.343Z,1.07
2018-04-27T12:35:08.739Z,1.47
2018-04-27T12:40:11.256Z,1.00
2018-04-27T12:45:13.763Z,1.63
2018-04-27T12:50:16.260Z,2.10
2018-04-27T12:55:19.529Z,1.30
2018-04-27T13:00:22.781Z,1.30
2018-04-27T13:05:26.043Z,1.57
2018-04-27T13:10:28.568Z,1.30
2018-04-27T13:15:31.072Z,1.43
2018-04-27T13:20:33.571Z,1.37
2018-04-27T13:25:36.088Z,1.33
2018-04-27T13:30:38.588Z,1.20
2018-04-27T13:35:41.108Z,1.60
2018-04-27T13:40:43.603Z,1.40
2018-04-27T13:45:46.105Z,0.90
2018-04-27T13:50:48.608Z,1.37
2018-04-27T13:55:51.108Z,1.40
2018-04-27T14:00:53.611Z,1.37
2018-04-27T14:05:56.900Z,1.17
2018-04-27T14:10:59.400Z,1.33
2018-04-27T14:16:01.896Z,1.50
2018-04-27T14:21:04.404Z,1.50
2018-04-27T14:26:07.675Z,2.20
2018-04-27T14:31:10.180Z,1.60
2018-04-27T14:36:12.708Z,1.70
2018-04-27T14:41:15.977Z,1.57
2018-04-27T14:46:18.487Z,1.67
2018-04-27T14:51:20.997Z,1.90
2018-04-27T14:56:24.271Z,2.00
2018-04-27T15:01:26.771Z,2.00
2018-04-27T15:06:29.288Z,1.87
2018-04-27T15:11:31.768Z,1.37
2018-04-27T15:16:34.267Z,1.33
2018-04-27T15:21:36.772Z,2.60
2018-04-27T15:26:40.061Z,1.87
2018-04-27T15:31:42.569Z,2.17
2018-04-27T15:36:45.059Z,2.40
2018-04-27T15:41:47.563Z,1.87
2018-04-27T15:46:50.843Z,1.20
2018-04-27T15:51:53.348Z,1.47
2018-04-27T15:56:55.853Z,1.70
2018-04-27T16:01:58.375Z,1.63
2018-04-27T16:07:00.894Z,1.33
2018-04-27T16:12:03.393Z,1.70
2018-04-27T16:17:05.913Z,1.77
2018-04-27T16:22:08.430Z,1.90
2018-04-27T16:27:11.700Z,2.27
2018-04-27T16:32:14.203Z,1.70
2018-04-27T16:37:16.728Z,2.00
2018-04-27T16:42:19.979Z,2.10
2018-04-27T16:47:22.476Z,2.60
2018-04-27T16:52:24.995Z,2.17
2018-04-27T16:57:27.524Z,2.20
2018-04-27T17:02:30.007Z,2.30
2018-04-27T17:07:33.276Z,2.30
2018-04-27T17:12:35.792Z,2.43
2018-04-27T17:17:38.292Z,1.80
2018-04-27T17:22:41.661Z,1.83
2018-04-27T17:27:44.099Z,2.10
2018-04-27T17:32:47.351Z,1.33
2018-04-27T17:37:50.606Z,1.80
2018-04-27T17:42:53.115Z,2.80
2018-04-27T17:47:56.384Z,2.50
2018-04-27T17:52:58.887Z,2.40
2018-04-27T17:58:02.159Z,1.97
2018-04-27T18:03:04.656Z,2.07
2018-04-27T18:08:07.159Z,2.13
2018-04-27T18:13:09.693Z,2.00
2018-04-27T18:18:12.288Z,2.50
2018-04-27T18:23:14.732Z,3.30
2018-04-27T18:28:18.532Z,2.50
2018-04-27T18:33:21.887Z,2.10
2018-04-27T18:38:24.355Z,3.30
2018-04-27T18:43:26.848Z,2.40
2018-04-27T18:48:29.352Z,2.30
2018-04-27T18:53:33.644Z,2.60
2018-04-27T18:58:36.911Z,2.50
2018-04-27T19:03:39.421Z,2.70
2018-04-27T19:08:41.912Z,3.10
2018-04-27T19:13:45.102Z,2.67
2018-04-27T19:18:47.607Z,1.90
2018-04-27T19:23:50.951Z,2.50
2018-04-27T19:28:54.226Z,2.17
2018-04-27T19:33:57.500Z,2.20
2018-04-27T19:39:00.033Z,1.97
2018-04-27T19:44:02.527Z,2.67
2018-04-27T19:49:05.031Z,1.87
2018-04-27T19:54:07.556Z,1.60
2018-04-27T19:59:10.828Z,2.73
2018-04-27T20:04:13.327Z,2.13
2018-04-27T20:09:15.819Z,2.53
2018-04-27T20:14:28.251Z,1.93
2018-04-27T20:19:30.740Z,2.00
2018-04-27T20:24:33.247Z,2.30
2018-04-27T20:29:35.824Z,2.23
2018-04-27T20:34:39.020Z,2.07
2018-04-27T20:39:41.529Z,2.37
2018-04-27T20:44:44.029Z,2.57
2018-04-27T20:49:46.523Z,2.43
2018-04-27T20:54:49.872Z,2.20
2018-04-27T20:59:52.425Z,2.13
2018-04-27T21:04:54.891Z,2.40
2018-04-27T21:09:57.394Z,1.97
2018-04-27T21:14:59.913Z,2.23
2018-04-27T21:20:03.175Z,2.80
2018-04-27T21:25:05.696Z,2.50
2018-04-27T21:30:08.233Z,2.30
2018-04-27T21:35:10.688Z,2.33
2018-04-27T21:40:13.180Z,2.13
2018-04-27T21:45:15.681Z,2.00
2018-04-27T21:50:19.746Z,2.13
2018-04-27T21:55:22.239Z,2.80
2018-04-27T22:00:25.456Z,2.23
2018-04-27T22:11:04.342Z,2.50
2018-04-27T22:16:21.599Z,2.30
2018-04-27T22:21:24.283Z,1.60
2018-04-27T22:26:26.792Z,1.87
2018-04-27T22:31:30.250Z,2.00
2018-04-27T22:36:41.537Z,2.47
2018-04-27T22:47:18.243Z,2.00
2018-04-27T22:52:20.712Z,2.10
2018-04-27T22:57:24.983Z,1.70
2018-04-27T23:02:27.460Z,2.03
2018-04-27T23:07:37.499Z,1.70
2018-04-27T23:18:38.564Z,1.83
2018-04-27T23:23:45.907Z,2.30
2018-04-27T23:28:48.535Z,1.83
2018-04-27T23:33:52.039Z,2.03
2018-04-27T23:38:55.503Z,1.60
2018-04-27T23:43:58.140Z,2.00
2018-04-27T23:49:04.537Z,2.23
2018-04-27T23:54:08.032Z,2.73
2018-04-27T23:59:10.590Z,1.90
